Detall de PIREP

Printer-friendly versionPDF version

[2010/12/22 09:16:00]
Flight IATA:CT3202
Pilot Number:011
Company ICAO:CAT
Aircraft Type:F28/A
PAX:85
Departing Airport: LEPA
Destination Airport: LGAV
Alternate Airport:LGTS
Online: VATSIM
Route:MORSS UM603 MOKTO UM872 LATAN UL869 EKVIS UL612 ARA UB34 NEMES
Flight Level:FL330
No Slew and time accel
No pause
Crash detect
Detect pilot in Cockpit between each 30 and 45 minutes
09:16 Zero fuel Weight: 54657 Lbs, Fuel Weight: 18258 Lbs
09:16 VATSIM:LEPA 220900Z VRB01KT 9999 FEW012 SCT025 14/13 Q1001 NOSIG
09:16 VATSIM:LGAV 220850Z VRB01KT 9999 FEW017 BKN025 16/13 Q1021 NOSIG
09:21 Parking Brakes off
09:32 Take-off
09:32 Take off Weight: 72311 Lbs
09:32 Wind: 104º @ 002 Knots Heading: 058º
09:32 POS N39º 33´ 19´´ E002º 43´ 40´´
09:32 Gear Up: 158 Knots
09:32 Flaps:3 at 158 Knots
09:33 Flaps:2 at 149 Knots
09:33 Flaps:1 at 171 Knots
09:33 Flaps:0 at 187 Knots
09:47 Wind:159º@028 Knots Heading: 082º Ground Speed: 217 Knots Altitude 29757 ft
10:00 TOC
10:00 Fuel Weight: 14600 Lb
10:02 Wind:133º@012 Knots Heading: 080º Ground Speed: 423 Knots Altitude 32687 ft
10:17 Wind:189º@032 Knots Heading: 088º Ground Speed: 467 Knots Altitude 32798 ft
11:32 Wind:142º@053 Knots Heading: 083º Ground Speed: 429 Knots Altitude 33126 ft
11:47 Wind:094º@021 Knots Heading: 126º Ground Speed: 428 Knots Altitude 33159 ft
11:49 TOD
11:49 Fuel Weight: 7021 Lb
12:02 Wind:199º@012 Knots Heading: 119º Ground Speed: 291 Knots Altitude 10813 ft
12:17 Wind:184º@018 Knots Heading: 351º Ground Speed: 290 Knots Altitude 6893 ft
12:23 Flaps:1 at 228 Knots
12:24 Flaps:2 at 196 Knots
12:24 Flaps:3 at 183 Knots
12:24 Gear Down: 183 Knots
12:25 Flaps:4 at 171 Knots
12:25 Flaps:3 at 160 Knots
12:25 Flaps:2 at 142 Knots
12:26 Flaps:3 at 138 Knots
12:26 Flaps:4 at 137 Knots
12:26 Flaps:2 at 136 Knots
12:26 Flaps:3 at 134 Knots
12:26 Flaps:4 at 133 Knots
12:26 Flaps:5 at 131 Knots
12:27 TouchDown:Rate -78 ft/min Speed: 104 Knots
12:27 VATSIM:LGAV 221150Z 19010KT 9999 FEW017 BKN025 18/12 Q1019 NOSIG
12:27 Land
12:27 Wind:187º@010 Knots
12:27 Heading: 216º
12:27 Flight Duration: 02:55
12:27 Landing Weight: 59898 Lbs
12:27 POS N37º 56´ 01´´ E023º 55´ 50´´
12:35 Parking brakes on
12:35 Block to Block Duration: 03:14
12:35 Final Fuel: 5006 Lbls
12:35 Spent Fuel: 13251 Lbls
12:35 Flight Length: 327 NM
12:35 TOD Land Length: 98 NM

Exportar CSV

Powered by Drupal - Modified by Danger4k